Terminal Aerodrome Forecast
Issued by NWS

Home | Current Version | Previous Version | Text Only | Print | Product List | Glossary Off
Versions: 1 2 3 4 5 6 7 8 9 10 11 12 13 14 15 16

695
FTUS43 KBIS 210528
TAFMOT
TAF
KMOT 210528Z 2106/2206 13006KT P6SM BKN200
     FM211000 23005KT P6SM BKN110
     FM211600 31010KT P6SM BKN250
     FM212300 35008KT P6SM SCT200=

USA.gov is the U.S. government's official web portal to all federal, state and local government web resources and services.